Time;durP1;ratioP1;P1;durP2;ratioP2;P2;SDS_P1;SDS_P2;PMS_P1;PMS_P2;Temp;Humidity;BMP_temperature;BMP_pressure;BME280_temperature;BME280_humidity;BME280_pressure;Samples;Min_cycle;Max_cycle;Signal;HPM_P1;HPM_P2
2022/12/02 00:01:35;;;;;;;34.67;25.03;;;;;;;2.90;100.00;102226.56;5075618;28;20278;-68
2022/12/02 00:04:01;;;;;;;34.87;24.53;;;;;;;3.26;100.00;102225.91;5070283;28;20325;-67
2022/12/02 00:06:30;;;;;;;37.10;24.97;;;;;;;3.05;100.00;102219.59;5064696;28;20238;-67
2022/12/02 00:09:01;;;;;;;39.63;25.30;;;;;;;3.25;100.00;102228.44;5057363;28;20313;-65
2022/12/02 00:11:30;;;;;;;37.07;24.87;;;;;;;3.48;100.00;102217.56;5078096;28;20330;-67
2022/12/02 00:13:59;;;;;;;38.90;26.93;;;;;;;3.63;100.00;102212.25;5081594;28;20645;-67
2022/12/02 00:16:27;;;;;;;35.37;24.43;;;;;;;3.45;100.00;102220.00;5082462;28;20316;-66
2022/12/02 00:18:55;;;;;;;35.40;24.37;;;;;;;3.34;100.00;102210.78;5081501;28;20703;-65
2022/12/02 00:21:22;;;;;;;41.80;26.57;;;;;;;3.50;100.00;102215.03;5073720;28;20329;-64
2022/12/02 00:23:49;;;;;;;37.10;24.77;;;;;;;3.31;100.00;102208.91;5063082;28;20223;-67
2022/12/02 00:26:16;;;;;;;37.10;24.63;;;;;;;3.24;100.00;102206.81;5076771;28;20321;-67
2022/12/02 00:28:42;;;;;;;37.63;23.30;;;;;;;3.74;100.00;102211.09;5070659;28;20489;-66
2022/12/02 00:31:09;;;;;;;34.87;24.83;;;;;;;3.51;100.00;102211.63;5053912;28;20354;-68
2022/12/02 00:33:37;;;;;;;40.77;26.20;;;;;;;3.52;100.00;102213.44;5078932;28;20234;-67
2022/12/02 00:36:04;;;;;;;37.13;25.27;;;;;;;3.44;100.00;102204.31;5080216;28;20321;-66
2022/12/02 00:38:31;;;;;;;35.97;24.77;;;;;;;3.54;100.00;102199.69;5071361;28;20326;-66
2022/12/02 00:40:57;;;;;;;38.33;25.90;;;;;;;3.30;100.00;102201.00;5075316;28;20257;-64
2022/12/02 00:48:52;;;;;;;37.77;24.20;;;;;;;3.88;100.00;102198.81;5055580;28;20266;-65
2022/12/02 00:51:19;;;;;;;36.13;23.27;;;;;;;3.76;100.00;102195.59;5060493;28;20627;-65
2022/12/02 00:53:45;;;;;;;41.17;24.97;;;;;;;3.77;100.00;102195.66;5061306;28;20264;-66
2022/12/02 00:56:12;;;;;;;34.87;23.60;;;;;;;3.76;100.00;102188.69;5072196;28;20233;-65
2022/12/02 00:58:39;;;;;;;34.40;22.40;;;;;;;3.85;100.00;102192.56;5078536;28;20244;-64
2022/12/02 01:01:05;;;;;;;33.53;23.40;;;;;;;3.75;100.00;102189.50;5083520;28;20230;-65
2022/12/02 01:03:32;;;;;;;35.73;23.13;;;;;;;3.74;100.00;102185.13;5079453;28;20332;-65
2022/12/02 01:06:00;;;;;;;35.03;22.97;;;;;;;3.59;100.00;102187.84;5081576;28;20657;-64
2022/12/02 01:08:27;;;;;;;34.70;24.50;;;;;;;3.82;100.00;102194.19;5081655;28;21015;-65
2022/12/02 01:10:54;;;;;;;34.50;23.33;;;;;;;3.84;100.00;102183.88;5074100;28;20241;-65
2022/12/02 01:13:21;;;;;;;34.37;24.33;;;;;;;3.92;100.00;102194.66;5071890;28;20319;-64
2022/12/02 01:15:47;;;;;;;30.60;22.63;;;;;;;4.04;100.00;102190.06;5083596;28;20244;-64
2022/12/02 01:18:14;;;;;;;32.10;22.87;;;;;;;4.11;100.00;102188.63;5082313;28;20255;-64
2022/12/02 01:20:41;;;;;;;36.63;22.97;;;;;;;4.00;100.00;102185.50;5082861;28;20666;-65
2022/12/02 01:23:09;;;;;;;35.23;24.23;;;;;;;3.70;100.00;102188.38;5081530;28;20233;-65
2022/12/02 01:25:35;;;;;;;34.27;24.40;;;;;;;3.74;100.00;102198.09;5081614;28;20309;-65
2022/12/02 01:28:02;;;;;;;37.10;23.77;;;;;;;3.78;100.00;102187.06;5074975;28;20332;-65
2022/12/02 01:30:29;;;;;;;35.57;25.07;;;;;;;3.84;100.00;102194.28;5080852;28;20316;-66
2022/12/02 01:32:55;;;;;;;34.03;23.53;;;;;;;3.54;100.00;102185.81;5077591;28;20648;-66
2022/12/02 01:35:22;;;;;;;35.57;23.83;;;;;;;3.70;100.00;102188.38;5083366;28;20702;-65
2022/12/02 01:37:49;;;;;;;38.00;26.37;;;;;;;3.48;100.00;102186.41;5076522;28;20253;-64
2022/12/02 01:40:18;;;;;;;37.53;23.43;;;;;;;3.70;100.00;102183.19;5077135;28;20994;-66
2022/12/02 01:42:45;;;;;;;35.97;23.80;;;;;;;3.80;100.00;102185.44;5084326;28;20323;-66
2022/12/02 01:45:12;;;;;;;38.00;25.17;;;;;;;3.71;100.00;102184.06;5085693;28;20352;-65
2022/12/02 01:47:40;;;;;;;39.63;22.77;;;;;;;3.96;100.00;102184.47;5085446;28;20727;-65
2022/12/02 01:50:09;;;;;;;37.20;24.23;;;;;;;3.70;100.00;102187.50;5087936;28;20392;-66
2022/12/02 01:52:36;;;;;;;40.93;27.50;;;;;;;3.28;100.00;102187.97;5086084;28;20249;-65
2022/12/02 01:55:03;;;;;;;36.83;24.27;;;;;;;3.61;100.00;102177.53;5082555;27;20233;-66
2022/12/02 01:57:31;;;;;;;35.63;24.90;;;;;;;3.78;100.00;102183.56;5084154;28;20264;-66
2022/12/02 01:59:58;;;;;;;36.23;25.37;;;;;;;3.22;100.00;102172.06;5071691;28;20257;-65
2022/12/02 02:02:26;;;;;;;38.40;23.27;;;;;;;3.79;100.00;102181.06;5065696;28;20234;-66
2022/12/02 02:05:09;;;;;;;37.00;24.80;;;;;;;3.88;100.00;102182.31;5070167;28;20340;-64
2022/12/02 02:07:36;;;;;;;45.50;25.17;;;;;;;3.65;100.00;102169.09;5054509;28;20243;-64
2022/12/02 02:10:05;;;;;;;35.30;24.67;;;;;;;3.88;100.00;102171.94;5046505;28;20322;-65
2022/12/02 02:12:33;;;;;;;35.87;24.23;;;;;;;3.33;100.00;102176.16;5052682;28;20230;-66
2022/12/02 02:15:02;;;;;;;39.00;24.13;;;;;;;3.37;100.00;102176.28;5055367;28;20322;-64
2022/12/02 02:17:29;;;;;;;39.50;24.77;;;;;;;3.34;100.00;102172.72;5053215;28;20237;-65
2022/12/02 02:19:56;;;;;;;35.70;23.47;;;;;;;3.89;100.00;102171.09;5043668;28;20283;-63
2022/12/02 02:22:26;;;;;;;35.30;23.47;;;;;;;3.93;100.00;102173.03;5042192;28;20326;-64
2022/12/02 02:24:54;;;;;;;33.77;23.20;;;;;;;3.56;100.00;102164.31;5042454;28;20304;-65
2022/12/02 02:27:21;;;;;;;34.37;22.50;;;;;;;3.47;100.00;102169.03;5055512;28;20970;-65
2022/12/02 02:29:49;;;;;;;43.53;25.07;;;;;;;3.73;100.00;102175.56;5056174;28;20245;-65
2022/12/02 02:32:16;;;;;;;33.87;22.03;;;;;;;3.56;100.00;102173.81;5062391;28;20226;-64
2022/12/02 02:34:43;;;;;;;30.37;21.40;;;;;;;4.19;100.00;102172.59;5051831;28;20237;-66
2022/12/02 02:37:10;;;;;;;34.90;23.53;;;;;;;3.81;100.00;102174.22;5049259;28;20260;-64
2022/12/02 02:39:37;;;;;;;32.40;21.73;;;;;;;4.02;100.00;102173.50;5048014;28;20245;-71
2022/12/02 02:42:05;;;;;;;32.93;22.27;;;;;;;4.28;100.00;102172.13;5056067;28;20314;-64
2022/12/02 02:44:32;;;;;;;38.43;23.57;;;;;;;4.14;100.00;102174.09;5073121;28;20731;-64
2022/12/02 02:46:59;;;;;;;30.27;22.10;;;;;;;4.04;100.00;102174.47;5083678;28;20322;-65
2022/12/02 02:49:27;;;;;;;35.93;22.30;;;;;;;4.11;100.00;102173.03;5092208;28;20226;-65
2022/12/02 02:51:54;;;;;;;36.27;23.17;;;;;;;3.53;100.00;102164.16;5097289;28;20266;-64
2022/12/02 02:54:21;;;;;;;35.30;24.07;;;;;;;3.97;100.00;102170.69;5084746;28;20229;-66
2022/12/02 02:56:48;;;;;;;33.73;23.07;;;;;;;4.13;100.00;102167.09;5079176;28;20294;-65
2022/12/02 02:59:17;;;;;;;29.07;20.63;;;;;;;4.24;100.00;102165.91;5084670;28;20557;-66
2022/12/02 03:01:45;;;;;;;32.63;22.10;;;;;;;4.28;100.00;102164.34;5074771;27;20318;-68
2022/12/02 03:04:14;;;;;;;28.97;20.57;;;;;;;4.22;100.00;102164.97;5058414;28;20848;-67
2022/12/02 03:06:41;;;;;;;33.87;23.20;;;;;;;4.11;100.00;102167.84;5065296;28;20239;-66
2022/12/02 03:09:11;;;;;;;33.17;23.50;;;;;;;3.93;100.00;102157.44;5064916;28;20663;-68
2022/12/02 03:11:38;;;;;;;35.20;23.77;;;;;;;4.14;100.00;102157.59;5061128;28;20241;-65
2022/12/02 03:14:06;;;;;;;32.50;22.00;;;;;;;4.06;100.00;102157.22;5050947;28;20227;-64
2022/12/02 03:16:35;;;;;;;32.27;22.87;;;;;;;4.19;100.00;102159.63;5073892;28;21284;-65
2022/12/02 03:19:02;;;;;;;32.70;21.83;;;;;;;4.15;100.00;102155.09;5062080;28;20259;-64
2022/12/02 03:21:31;;;;;;;30.53;22.07;;;;;;;4.05;100.00;102155.47;5070094;28;20317;-64
2022/12/02 03:23:59;;;;;;;39.03;24.90;;;;;;;3.91;100.00;102153.91;5066532;28;20222;-65
2022/12/02 03:26:27;;;;;;;30.93;22.30;;;;;;;3.50;100.00;102148.41;5057744;28;20227;-65
2022/12/02 03:28:56;;;;;;;30.33;20.70;;;;;;;3.68;100.00;102160.53;5056086;28;20234;-64
2022/12/02 03:31:24;;;;;;;36.57;23.40;;;;;;;3.47;100.00;102147.38;5058100;28;20311;-64
2022/12/02 03:33:52;;;;;;;33.50;22.17;;;;;;;3.72;100.00;102149.47;5059384;28;20241;-64
2022/12/02 03:36:19;;;;;;;29.70;21.33;;;;;;;3.76;100.00;102152.34;5053882;28;20265;-63
2022/12/02 03:38:46;;;;;;;32.83;22.47;;;;;;;3.67;100.00;102157.06;5061420;28;20235;-64
2022/12/02 03:41:14;;;;;;;30.23;22.17;;;;;;;3.99;100.00;102145.66;5050968;28;20309;-63
2022/12/02 03:43:41;;;;;;;28.63;20.20;;;;;;;4.07;100.00;102143.41;5059787;28;20288;-64
2022/12/02 03:46:08;;;;;;;34.43;22.07;;;;;;;3.71;100.00;102142.53;5057252;28;20761;-63
2022/12/02 03:48:36;;;;;;;29.90;20.60;;;;;;;3.75;100.00;102139.25;5061447;28;20720;-63
2022/12/02 03:51:04;;;;;;;30.13;21.17;;;;;;;3.83;100.00;102138.84;5068085;28;20626;-64
2022/12/02 03:53:32;;;;;;;30.60;21.73;;;;;;;3.98;100.00;102132.59;5069478;28;20238;-63
2022/12/02 03:56:02;;;;;;;29.50;21.43;;;;;;;3.93;100.00;102140.19;5071547;28;20347;-63
2022/12/02 03:58:34;;;;;;;29.40;20.73;;;;;;;3.98;100.00;102138.69;5068964;28;20676;-64
2022/12/02 04:01:01;;;;;;;36.27;22.10;;;;;;;4.05;100.00;102145.06;5072371;28;20289;-64
2022/12/02 04:03:28;;;;;;;32.53;20.93;;;;;;;3.74;100.00;102140.97;5074104;28;20663;-63
2022/12/02 04:05:55;;;;;;;33.63;20.77;;;;;;;4.06;100.00;102137.31;5079365;28;20364;-63
2022/12/02 04:08:24;;;;;;;31.30;20.83;;;;;;;4.20;100.00;102140.59;5066756;28;20759;-63
2022/12/02 04:10:51;;;;;;;30.63;20.33;;;;;;;4.25;100.00;102135.63;5068745;28;20244;-63
2022/12/02 04:13:18;;;;;;;34.33;22.73;;;;;;;3.81;100.00;102129.16;5068470;28;20288;-63
2022/12/02 04:15:45;;;;;;;32.00;21.27;;;;;;;4.13;100.00;102135.03;5051773;28;20740;-64
2022/12/02 04:18:12;;;;;;;31.07;21.17;;;;;;;3.89;100.00;102129.53;5073258;28;20239;-63
2022/12/02 04:20:39;;;;;;;29.10;20.63;;;;;;;3.97;100.00;102121.31;5079916;28;20758;-63
2022/12/02 04:23:06;;;;;;;29.27;18.90;;;;;;;3.94;100.00;102125.47;5074965;28;20258;-63
2022/12/02 04:25:35;;;;;;;27.23;20.10;;;;;;;4.15;100.00;102130.81;5073431;28;20779;-63
2022/12/02 04:28:02;;;;;;;32.13;21.23;;;;;;;3.90;100.00;102136.53;5062178;28;20613;-63
2022/12/02 04:30:29;;;;;;;24.27;18.77;;;;;;;3.57;100.00;102129.72;5056180;28;20251;-63
2022/12/02 04:32:56;;;;;;;25.13;18.93;;;;;;;3.78;100.00;102135.09;5053067;28;20238;-63
2022/12/02 04:35:22;;;;;;;28.93;18.40;;;;;;;3.81;100.00;102135.25;5056138;28;20616;-63
2022/12/02 04:37:50;;;;;;;31.57;18.67;;;;;;;3.68;100.00;102132.88;5057953;28;20233;-65
2022/12/02 04:40:18;;;;;;;28.83;19.80;;;;;;;3.82;100.00;102131.84;5050884;28;20227;-64
2022/12/02 04:42:46;;;;;;;26.73;18.63;;;;;;;3.41;100.00;102137.59;5058007;28;20337;-64
2022/12/02 04:45:14;;;;;;;24.63;18.43;;;;;;;3.45;100.00;102134.31;5056185;28;20242;-64
2022/12/02 04:47:41;;;;;;;29.50;19.03;;;;;;;3.44;100.00;102126.44;5053816;28;20263;-63
2022/12/02 04:50:09;;;;;;;25.33;18.70;;;;;;;3.71;100.00;102130.41;5044735;28;20234;-64
2022/12/02 04:52:36;;;;;;;27.57;19.30;;;;;;;3.84;100.00;102124.13;5056979;28;20291;-63
2022/12/02 04:55:03;;;;;;;24.77;17.93;;;;;;;3.39;100.00;102114.94;5056663;28;20227;-64
2022/12/02 04:57:30;;;;;;;24.20;18.07;;;;;;;3.58;100.00;102117.66;5056993;28;20253;-63
2022/12/02 04:59:59;;;;;;;30.30;19.10;;;;;;;3.85;100.00;102123.31;5053253;28;20233;-64
2022/12/02 05:02:26;;;;;;;22.80;17.87;;;;;;;3.72;100.00;102127.03;5053556;28;20234;-65
2022/12/02 05:04:52;;;;;;;25.10;18.07;;;;;;;3.92;100.00;102121.91;5057308;28;20244;-65
2022/12/02 05:07:20;;;;;;;24.77;18.87;;;;;;;3.77;100.00;102122.94;5057263;28;20273;-64
2022/12/02 05:09:46;;;;;;;24.97;18.83;;;;;;;3.57;100.00;102113.25;5068705;28;20310;-62
2022/12/02 05:12:13;;;;;;;26.83;19.17;;;;;;;3.25;100.00;102109.94;5078662;28;20234;-65
2022/12/02 05:14:40;;;;;;;29.07;19.70;;;;;;;2.91;100.00;102114.22;5061839;28;20705;-64
2022/12/02 05:17:09;;;;;;;25.33;18.63;;;;;;;3.80;100.00;102102.31;5056814;28;20365;-64
2022/12/02 05:19:36;;;;;;;25.33;17.70;;;;;;;3.80;100.00;102117.91;5058626;28;20284;-64
2022/12/02 05:22:03;;;;;;;24.50;18.10;;;;;;;3.80;100.00;102117.00;5058212;28;20254;-63
2022/12/02 05:24:30;;;;;;;25.57;17.80;;;;;;;3.90;100.00;102110.56;5054546;28;20261;-63
2022/12/02 05:26:57;;;;;;;26.67;18.50;;;;;;;3.96;100.00;102114.31;5061920;28;20238;-63
2022/12/02 05:29:24;;;;;;;23.37;16.60;;;;;;;3.72;100.00;102113.13;5058712;28;20448;-64
2022/12/02 05:31:51;;;;;;;21.40;16.50;;;;;;;3.49;100.00;102114.59;5060578;28;20280;-65
2022/12/02 05:34:19;;;;;;;22.63;16.60;;;;;;;3.34;100.00;102113.03;5057874;28;20339;-65
2022/12/02 05:36:46;;;;;;;24.17;17.23;;;;;;;3.41;100.00;102114.22;5061112;28;20240;-63
2022/12/02 05:39:13;;;;;;;23.00;17.07;;;;;;;3.59;100.00;102117.72;5069947;28;20233;-63
2022/12/02 05:41:40;;;;;;;22.33;16.40;;;;;;;3.96;100.00;102118.63;5067499;28;20314;-63
2022/12/02 05:44:19;;;;;;;23.60;16.63;;;;;;;3.59;100.00;102122.03;5071225;28;20675;-63
2022/12/02 05:46:46;;;;;;;25.33;18.03;;;;;;;3.25;100.00;102120.31;5075931;28;20260;-64
2022/12/02 05:49:17;;;;;;;25.60;17.43;;;;;;;3.46;100.00;102119.63;5070890;28;20242;-63
2022/12/02 05:51:46;;;;;;;27.03;16.97;;;;;;;3.43;100.00;102122.06;5076077;28;20316;-63
2022/12/02 05:54:18;;;;;;;22.97;17.00;;;;;;;3.49;100.00;102109.41;5081502;28;20233;-63
2022/12/02 05:56:45;;;;;;;25.97;18.37;;;;;;;3.39;100.00;102113.25;5077450;28;20234;-64
2022/12/02 05:59:15;;;;;;;22.90;16.80;;;;;;;3.56;100.00;102116.69;5071568;28;20749;-63
2022/12/02 06:01:43;;;;;;;21.27;16.33;;;;;;;3.50;100.00;102111.19;5059202;28;20235;-65
2022/12/02 06:04:14;;;;;;;23.23;17.63;;;;;;;3.52;100.00;102112.16;5077396;28;20232;-63
2022/12/02 06:06:41;;;;;;;26.53;17.00;;;;;;;3.13;100.00;102111.94;5072063;28;20239;-63
2022/12/02 06:09:14;;;;;;;25.73;17.87;;;;;;;3.48;100.00;102113.72;5062727;28;20227;-63
2022/12/02 06:11:41;;;;;;;22.10;16.67;;;;;;;3.34;100.00;102115.63;5070531;28;20278;-62
2022/12/02 06:14:14;;;;;;;25.27;17.70;;;;;;;3.23;100.00;102106.41;5056867;28;20250;-63
2022/12/02 06:16:41;;;;;;;20.00;16.07;;;;;;;3.35;100.00;102109.59;5069467;28;20295;-63
2022/12/02 06:19:19;;;;;;;22.33;16.50;;;;;;;3.03;100.00;102115.75;5056172;28;20230;-64
2022/12/02 06:21:46;;;;;;;23.50;17.47;;;;;;;3.26;100.00;102113.44;5066052;28;20585;-64
2022/12/02 06:24:15;;;;;;;22.23;17.00;;;;;;;3.39;100.00;102117.53;5060007;28;20951;-64
2022/12/02 06:26:42;;;;;;;22.30;16.10;;;;;;;3.23;100.00;102116.78;5062472;28;20624;-64
2022/12/02 06:29:10;;;;;;;21.67;16.23;;;;;;;3.61;100.00;102122.09;5060308;28;20237;-65
2022/12/02 06:31:38;;;;;;;28.37;18.23;;;;;;;3.44;100.00;102122.16;5060270;28;20227;-64
2022/12/02 06:34:14;;;;;;;21.83;16.43;;;;;;;3.35;100.00;102125.19;5059708;28;20246;-62
2022/12/02 06:36:41;;;;;;;18.60;15.10;;;;;;;3.45;100.00;102129.13;5067724;28;20248;-63
2022/12/02 06:39:19;;;;;;;25.93;16.93;;;;;;;3.39;100.00;102127.94;5071981;28;21295;-64
2022/12/02 06:41:47;;;;;;;23.97;16.27;;;;;;;3.36;100.00;102133.84;5073944;28;20985;-65
2022/12/02 06:47:42;;;;;;;23.37;16.43;;;;;;;3.72;100.00;102134.81;5065954;28;20907;-65
2022/12/02 06:50:24;;;;;;;21.67;16.00;;;;;;;3.70;100.00;102133.84;5055913;28;20223;-64
2022/12/02 06:52:51;;;;;;;21.93;16.20;;;;;;;3.61;100.00;102141.16;5060568;28;20308;-64
2022/12/02 06:55:31;;;;;;;20.40;14.67;;;;;;;3.82;100.00;102152.63;5070461;28;20230;-64
2022/12/02 06:58:01;;;;;;;20.90;16.07;;;;;;;3.74;98.97;102148.75;5075204;28;20873;-64
2022/12/02 07:00:28;;;;;;;22.83;16.23;;;;;;;3.67;99.72;102141.47;5076308;28;20233;-64
2022/12/02 07:02:55;;;;;;;21.87;17.37;;;;;;;3.47;99.08;102132.69;5072591;28;20746;-63
2022/12/02 07:05:22;;;;;;;22.90;17.10;;;;;;;3.69;100.00;102132.06;5060765;28;20223;-64
2022/12/02 07:07:49;;;;;;;21.53;16.80;;;;;;;3.66;98.25;102134.50;5057502;28;20371;-63
2022/12/02 07:10:21;;;;;;;25.27;15.47;;;;;;;3.82;99.43;102121.44;5051073;28;20238;-64
2022/12/02 07:12:50;;;;;;;20.23;15.93;;;;;;;3.26;100.00;102119.50;5059893;28;20696;-64
2022/12/02 07:15:26;;;;;;;23.00;16.77;;;;;;;3.23;100.00;102121.97;5074744;28;20641;-63
2022/12/02 07:17:53;;;;;;;24.43;16.50;;;;;;;2.93;100.00;102129.06;5078321;28;20240;-63
2022/12/02 07:20:31;;;;;;;23.37;16.60;;;;;;;3.01;100.00;102124.25;5064813;28;20233;-64
2022/12/02 07:22:59;;;;;;;23.87;15.50;;;;;;;3.29;100.00;102121.38;5062133;28;20230;-63
2022/12/02 07:25:32;;;;;;;23.10;16.10;;;;;;;3.44;100.00;102118.66;5061123;28;20227;-64
2022/12/02 07:28:02;;;;;;;22.43;15.43;;;;;;;3.41;100.00;102119.41;5057902;28;20316;-63
2022/12/02 07:30:31;;;;;;;24.93;17.43;;;;;;;3.50;100.00;102122.44;5068192;28;20694;-64
2022/12/02 07:32:58;;;;;;;23.67;17.53;;;;;;;3.44;100.00;102126.44;5077417;28;20256;-64
2022/12/02 07:35:26;;;;;;;26.50;15.57;;;;;;;3.42;100.00;102128.09;5057208;28;20772;-63
2022/12/02 07:37:53;;;;;;;21.90;16.83;;;;;;;3.41;100.00;102123.72;5056326;28;20246;-63
2022/12/02 07:40:20;;;;;;;24.37;16.87;;;;;;;3.52;100.00;102131.22;5055447;28;20250;-63
2022/12/02 07:42:47;;;;;;;24.03;16.83;;;;;;;3.49;100.00;102136.25;5056604;28;20262;-64
2022/12/02 07:45:18;;;;;;;22.93;15.90;;;;;;;3.35;100.00;102143.34;5080557;28;20730;-64
2022/12/02 07:47:45;;;;;;;25.10;16.53;;;;;;;3.22;100.00;102134.84;5066379;28;20231;-65
2022/12/02 07:50:13;;;;;;;20.43;14.80;;;;;;;3.33;100.00;102128.50;5078841;28;20226;-64
2022/12/02 07:52:40;;;;;;;23.73;17.10;;;;;;;3.56;100.00;102132.28;5077703;28;20229;-63
2022/12/02 07:55:07;;;;;;;24.53;16.80;;;;;;;3.42;100.00;102138.47;5083491;28;20312;-63
2022/12/02 07:57:34;;;;;;;25.33;17.30;;;;;;;3.01;100.00;102137.22;5072104;28;22536;-65
2022/12/02 08:00:01;;;;;;;23.67;16.37;;;;;;;3.42;100.00;102143.66;5068989;28;20235;-65
2022/12/02 08:02:29;;;;;;;23.77;15.63;;;;;;;3.04;100.00;102139.97;5076466;28;20333;-64
2022/12/02 08:04:56;;;;;;;21.77;16.03;;;;;;;3.41;100.00;102141.91;5063340;28;20238;-64
2022/12/02 08:07:23;;;;;;;23.63;16.43;;;;;;;3.20;100.00;102139.97;5051954;28;20416;-65
2022/12/02 08:09:50;;;;;;;24.47;16.03;;;;;;;2.97;100.00;102140.47;5057982;28;20388;-64
2022/12/02 08:12:17;;;;;;;21.23;15.50;;;;;;;3.02;100.00;102141.59;5053919;28;20251;-63
2022/12/02 08:14:44;;;;;;;17.90;14.83;;;;;;;3.22;100.00;102140.94;5059073;28;20234;-63
2022/12/02 08:17:11;;;;;;;21.53;14.93;;;;;;;3.50;100.00;102131.94;5070854;28;20249;-64
2022/12/02 08:19:40;;;;;;;22.57;14.90;;;;;;;3.51;100.00;102131.13;5077855;28;20686;-63
2022/12/02 08:22:07;;;;;;;19.17;14.17;;;;;;;3.66;100.00;102133.63;5075172;28;20301;-65
2022/12/02 08:24:34;;;;;;;25.17;16.53;;;;;;;3.80;100.00;102133.47;5080252;28;20253;-65
2022/12/02 08:27:01;;;;;;;20.67;15.93;;;;;;;3.89;100.00;102127.81;5077786;28;20229;-65
2022/12/02 08:29:29;;;;;;;25.07;16.23;;;;;;;3.70;100.00;102138.16;5079364;28;20235;-65
2022/12/02 08:31:57;;;;;;;23.93;15.50;;;;;;;3.53;100.00;102133.00;5075721;28;20242;-65
2022/12/02 08:34:24;;;;;;;26.27;16.73;;;;;;;3.11;100.00;102129.13;5057793;28;20238;-67
2022/12/02 08:36:53;;;;;;;21.50;15.97;;;;;;;3.25;100.00;102135.91;5071202;28;20682;-67
2022/12/02 08:39:20;;;;;;;24.17;16.60;;;;;;;3.11;100.00;102150.75;5071620;28;20310;-66
2022/12/02 08:41:46;;;;;;;24.67;16.07;;;;;;;3.53;100.00;102147.69;5065687;28;20239;-65
2022/12/02 08:44:13;;;;;;;22.27;15.67;;;;;;;3.61;100.00;102143.75;5065362;28;20257;-66
2022/12/02 08:46:40;;;;;;;26.37;16.67;;;;;;;3.79;100.00;102148.97;5076571;28;20313;-65
2022/12/02 08:49:07;;;;;;;22.43;15.93;;;;;;;3.96;100.00;102147.22;5076061;28;20233;-64
2022/12/02 08:51:34;;;;;;;20.93;15.43;;;;;;;3.66;100.00;102150.09;5076106;28;20240;-64
2022/12/02 08:54:02;;;;;;;25.20;15.40;;;;;;;3.66;100.00;102144.91;5074146;28;20241;-63
2022/12/02 08:56:29;;;;;;;24.50;17.00;;;;;;;3.57;100.00;102134.94;5064951;28;20724;-63
2022/12/02 08:58:56;;;;;;;21.10;14.73;;;;;;;3.66;100.00;102136.22;5076847;28;20234;-62
2022/12/02 09:01:23;;;;;;;25.27;16.20;;;;;;;3.37;100.00;102135.66;5071494;28;20230;-64
2022/12/02 09:03:50;;;;;;;24.80;16.50;;;;;;;3.23;100.00;102140.16;5065163;28;20596;-63
2022/12/02 09:06:17;;;;;;;21.23;15.53;;;;;;;3.40;100.00;102134.91;5056070;28;20248;-64
2022/12/02 09:08:44;;;;;;;21.57;15.00;;;;;;;3.54;100.00;102137.38;5050542;28;20285;-65
2022/12/02 09:11:12;;;;;;;27.03;17.13;;;;;;;3.71;100.00;102133.00;5065474;28;20648;-65
2022/12/02 09:13:39;;;;;;;22.37;16.53;;;;;;;3.66;100.00;102131.03;5058926;28;20242;-64
2022/12/02 09:16:06;;;;;;;25.47;16.93;;;;;;;3.05;100.00;102131.38;5075416;28;20230;-64
2022/12/02 09:18:33;;;;;;;25.93;16.93;;;;;;;3.43;100.00;102135.06;5080161;28;20234;-63
2022/12/02 09:21:00;;;;;;;26.13;17.33;;;;;;;3.28;100.00;102136.06;5078838;28;20263;-63
2022/12/02 09:23:27;;;;;;;22.00;15.73;;;;;;;3.28;100.00;102133.47;5069520;28;20233;-65
2022/12/02 09:25:54;;;;;;;21.33;15.87;;;;;;;3.10;100.00;102130.81;5080090;28;20849;-63
2022/12/02 09:28:24;;;;;;;24.03;15.53;;;;;;;2.97;100.00;102140.47;5075292;28;20229;-63
2022/12/02 09:30:51;;;;;;;21.23;14.83;;;;;;;3.24;100.00;102139.31;5063923;28;20241;-63
2022/12/02 09:33:18;;;;;;;23.67;15.83;;;;;;;3.15;100.00;102132.75;5060385;28;20241;-64
2022/12/02 09:35:45;;;;;;;24.70;15.97;;;;;;;3.02;100.00;102131.22;5063456;28;20234;-63
2022/12/02 09:38:12;;;;;;;23.20;16.77;;;;;;;3.37;100.00;102127.88;5082065;28;20645;-63
2022/12/02 09:40:39;;;;;;;23.73;14.87;;;;;;;3.82;100.00;102137.03;5077733;28;20252;-64
2022/12/02 09:43:06;;;;;;;23.33;15.67;;;;;;;3.67;100.00;102131.09;5062307;28;20243;-63
2022/12/02 09:45:35;;;;;;;23.97;15.63;;;;;;;3.47;100.00;102130.09;5053140;28;20229;-62
2022/12/02 09:48:02;;;;;;;22.27;15.57;;;;;;;3.43;100.00;102125.56;5051227;28;20669;-63
2022/12/02 09:50:29;;;;;;;26.93;16.53;;;;;;;3.56;100.00;102124.47;5054034;28;20254;-63
2022/12/02 09:52:59;;;;;;;22.50;15.77;;;;;;;3.79;100.00;102126.50;5060933;28;20233;-65
2022/12/02 09:55:26;;;;;;;23.73;15.47;;;;;;;3.77;99.43;102117.75;5062593;28;20292;-63
2022/12/02 09:58:12;;;;;;;26.00;15.90;;;;;;;3.45;100.00;102110.97;5061650;28;20270;-64
2022/12/02 10:00:40;;;;;;;26.33;16.77;;;;;;;3.27;100.00;102110.03;5062030;28;20875;-63
2022/12/02 10:03:07;;;;;;;23.27;16.13;;;;;;;3.37;100.00;102113.97;5065735;28;20398;-64
2022/12/02 10:05:35;;;;;;;23.93;15.53;;;;;;;3.23;100.00;102114.19;5061761;28;20788;-63
2022/12/02 10:08:02;;;;;;;25.40;17.07;;;;;;;3.04;100.00;102114.03;5071483;28;20651;-64
2022/12/02 10:10:34;;;;;;;28.53;15.97;;;;;;;3.17;100.00;102111.28;5084470;28;20272;-63
2022/12/02 10:13:01;;;;;;;22.87;15.87;;;;;;;3.33;100.00;102093.06;5084608;28;20257;-63
2022/12/02 10:15:30;;;;;;;28.10;15.50;;;;;;;3.29;100.00;102095.41;5086041;28;20241;-63
2022/12/02 10:18:01;;;;;;;27.53;16.90;;;;;;;3.39;100.00;102091.59;5084064;28;20232;-63
2022/12/02 10:20:29;;;;;;;25.17;16.00;;;;;;;3.41;100.00;102096.06;5093059;28;20403;-63
2022/12/02 10:23:07;;;;;;;23.20;16.00;;;;;;;3.20;100.00;102101.06;5085543;28;20248;-63
2022/12/02 10:25:34;;;;;;;27.87;16.90;;;;;;;3.25;100.00;102089.19;5085826;28;20299;-63
2022/12/02 10:28:01;;;;;;;24.73;17.00;;;;;;;3.15;100.00;102094.72;5084335;28;20344;-64
2022/12/02 10:30:29;;;;;;;23.00;16.00;;;;;;;3.03;100.00;102086.31;5079939;28;20226;-69
2022/12/02 10:33:00;;;;;;;21.90;14.60;;;;;;;3.11;100.00;102085.00;5084921;28;20752;-62
2022/12/02 10:35:28;;;;;;;23.23;15.20;;;;;;;3.13;100.00;102085.97;5084550;28;20774;-64
2022/12/02 10:37:55;;;;;;;22.70;15.77;;;;;;;3.45;100.00;102082.41;5084858;28;20233;-65
2022/12/02 10:40:23;;;;;;;22.70;16.47;;;;;;;3.35;100.00;102083.66;5077377;28;20587;-63
2022/12/02 10:43:07;;;;;;;25.27;16.17;;;;;;;3.23;100.00;102085.63;5075171;28;20249;-63
2022/12/02 10:45:34;;;;;;;26.23;16.83;;;;;;;3.24;100.00;102087.41;5082932;28;20314;-64
2022/12/02 10:48:13;;;;;;;24.77;16.60;;;;;;;3.27;100.00;102087.56;5080198;28;20307;-64
2022/12/02 10:50:40;;;;;;;24.47;16.37;;;;;;;3.25;100.00;102085.69;5070741;28;20237;-65
2022/12/02 10:53:13;;;;;;;29.10;17.93;;;;;;;2.90;100.00;102074.41;5062641;28;20352;-64
2022/12/02 10:55:39;;;;;;;28.67;16.87;;;;;;;3.19;100.00;102069.81;5063063;28;20506;-64
2022/12/02 10:58:08;;;;;;;31.90;17.93;;;;;;;3.21;100.00;102078.59;5052622;28;22141;-64
2022/12/02 11:00:35;;;;;;;30.63;18.23;;;;;;;3.13;100.00;102078.19;5060515;28;20396;-65
2022/12/02 11:03:04;;;;;;;28.40;17.03;;;;;;;3.37;100.00;102077.63;5062485;28;20351;-63
2022/12/02 11:05:36;;;;;;;29.70;18.43;;;;;;;3.24;100.00;102077.03;5062562;28;20474;-64
2022/12/02 11:08:05;;;;;;;31.20;19.43;;;;;;;2.94;100.00;102059.91;5059326;28;20242;-64
2022/12/02 11:10:34;;;;;;;36.67;19.30;;;;;;;2.95;100.00;102056.47;5063069;28;20234;-63
2022/12/02 11:13:07;;;;;;;27.70;17.10;;;;;;;2.88;100.00;102060.50;5071802;28;20245;-64
2022/12/02 11:15:42;;;;;;;32.13;19.03;;;;;;;2.77;100.00;102072.00;5065985;28;20242;-64
2022/12/02 11:18:10;;;;;;;29.43;18.70;;;;;;;2.90;100.00;102063.16;5070468;28;20317;-64
2022/12/02 11:20:43;;;;;;;33.90;19.47;;;;;;;2.91;100.00;102070.13;5071124;28;20321;-62
2022/12/02 11:23:25;;;;;;;35.73;19.77;;;;;;;2.87;100.00;102062.16;5071710;28;20644;-63